createdAt,value
2022-08-29T00:00:17.828Z,100695.59
2022-08-29T00:02:51.820Z,100697.34
2022-08-29T00:05:24.881Z,100687.59
2022-08-29T00:07:53.610Z,100686.69
2022-08-29T00:10:22.718Z,100697.28
2022-08-29T00:12:51.354Z,100700.78
2022-08-29T00:15:21.643Z,100697.22
2022-08-29T00:17:51.414Z,100690.13
2022-08-29T00:20:33.968Z,100686.59
2022-08-29T00:23:03.556Z,100683.03
2022-08-29T00:25:32.271Z,100688.28
2022-08-29T00:28:00.816Z,100680.34
2022-08-29T00:30:29.266Z,100682.94
2022-08-29T00:32:59.129Z,100682.94
2022-08-29T00:35:31.065Z,100689.91
2022-08-29T00:37:59.997Z,100677.53
2022-08-29T00:40:31.115Z,100687.19
2022-08-29T00:42:59.826Z,100688.88
2022-08-29T00:45:29.383Z,100685.38
2022-08-29T00:48:02.430Z,100681.78
2022-08-29T00:50:35.579Z,100686.16
2022-08-29T00:53:07.100Z,100688.78
2022-08-29T00:55:39.058Z,100689.59
2022-08-29T00:58:14.018Z,100679.00
2022-08-29T01:00:44.067Z,100677.16
2022-08-29T01:03:13.828Z,100682.44
2022-08-29T01:05:42.887Z,100682.41
2022-08-29T01:08:11.301Z,100680.59
2022-08-29T01:10:57.407Z,100683.19
2022-08-29T01:13:30.822Z,100687.56
2022-08-29T01:15:59.827Z,100682.25
2022-08-29T01:18:31.454Z,100681.28
2022-08-29T01:21:10.203Z,100685.66
2022-08-29T01:23:45.300Z,100690.91
2022-08-29T01:26:15.186Z,100697.91
2022-08-29T01:28:47.181Z,100689.94
2022-08-29T01:31:46.999Z,100693.41
2022-08-29T01:34:10.115Z,100698.66
2022-08-29T01:36:42.298Z,100698.59
2022-08-29T01:39:10.721Z,100696.78
2022-08-29T01:41:41.647Z,100694.13
2022-08-29T01:44:12.900Z,100698.47
2022-08-29T01:46:41.786Z,100705.44
2022-08-29T01:49:12.077Z,100701.88
2022-08-29T01:51:41.592Z,100703.59
2022-08-29T01:54:11.709Z,100703.53
2022-08-29T01:56:45.110Z,100702.63
2022-08-29T01:59:17.220Z,100703.47
2022-08-29T02:01:51.107Z,100711.31
2022-08-29T02:04:20.455Z,100714.75
2022-08-29T02:06:48.772Z,100715.59
2022-08-29T02:09:17.971Z,100714.66
2022-08-29T02:11:48.235Z,100705.81
2022-08-29T02:14:19.568Z,100709.31
2022-08-29T02:16:48.898Z,100708.38
2022-08-29T02:19:18.261Z,100714.47
2022-08-29T02:21:46.668Z,100707.34
2022-08-29T02:24:25.378Z,100710.81
2022-08-29T02:26:56.864Z,100723.03
2022-08-29T02:29:26.553Z,100722.94
2022-08-29T02:32:06.940Z,100728.09
2022-08-29T02:34:35.431Z,100726.28
2022-08-29T02:37:03.902Z,100723.63
2022-08-29T02:39:32.230Z,100727.09
2022-08-29T02:42:02.149Z,100730.53
2022-08-29T02:44:30.640Z,100724.25
2022-08-29T02:46:59.061Z,100718.03
2022-08-29T02:49:27.494Z,100720.59
2022-08-29T02:51:56.628Z,100722.25
2022-08-29T02:54:25.005Z,100731.84
2022-08-29T02:56:53.440Z,100729.97
2022-08-29T02:59:23.214Z,100726.38
2022-08-29T03:01:51.751Z,100728.94
2022-08-29T03:04:20.291Z,100716.56
2022-08-29T03:06:49.337Z,100726.13
2022-08-29T03:09:17.893Z,100721.69
2022-08-29T03:11:46.250Z,100729.53
2022-08-29T03:14:14.662Z,100725.09
2022-08-29T03:16:45.755Z,100721.44
2022-08-29T03:19:14.152Z,100716.06
2022-08-29T03:21:44.367Z,100716.91
2022-08-29T03:24:12.837Z,100707.16
2022-08-29T03:26:41.206Z,100707.91
2022-08-29T03:29:09.631Z,100713.97
2022-08-29T03:31:38.048Z,100713.91
2022-08-29T03:34:08.074Z,100716.47
2022-08-29T03:36:36.473Z,100721.69
2022-08-29T03:39:04.976Z,100719.81
2022-08-29T03:41:34.649Z,100713.56
2022-08-29T03:44:03.383Z,100717.00
2022-08-29T03:46:33.364Z,100711.75
2022-08-29T03:49:01.754Z,100709.00
2022-08-29T03:51:31.966Z,100705.44
2022-08-29T03:54:00.386Z,100706.25
2022-08-29T03:56:30.056Z,100707.97
2022-08-29T03:58:58.547Z,100703.50
2022-08-29T04:01:29.696Z,100706.03
2022-08-29T04:03:59.016Z,100698.06
2022-08-29T04:06:29.197Z,100698.94
2022-08-29T04:08:59.104Z,100690.13
2022-08-29T04:11:28.874Z,100691.78
2022-08-29T04:13:57.201Z,100698.72
2022-08-29T04:16:30.739Z,100692.50
2022-08-29T04:19:00.555Z,100690.69
2022-08-29T04:21:29.131Z,100694.13
2022-08-29T04:23:58.876Z,100689.66
2022-08-29T04:26:36.500Z,100691.41
2022-08-29T04:29:06.290Z,100697.50
2022-08-29T04:31:34.876Z,100695.69
2022-08-29T04:34:03.947Z,100692.16
2022-08-29T04:36:32.354Z,100693.03
2022-08-29T04:39:02.259Z,100702.63
2022-08-29T04:41:32.946Z,100705.31
2022-08-29T04:44:02.198Z,100707.09
2022-08-29T04:46:30.804Z,100705.38
2022-08-29T04:49:03.795Z,100708.06
2022-08-29T04:51:34.336Z,100702.88
2022-08-29T04:54:05.102Z,100703.75
2022-08-29T04:56:34.807Z,100713.47
2022-08-29T04:59:03.188Z,100710.94
2022-08-29T05:01:32.430Z,100718.88
2022-08-29T05:04:00.929Z,100716.28
2022-08-29T05:06:29.338Z,100719.84
2022-08-29T05:08:59.624Z,100718.13
2022-08-29T05:11:31.580Z,100707.69
2022-08-29T05:14:01.194Z,100710.34
2022-08-29T05:16:31.025Z,100711.31
2022-08-29T05:19:01.362Z,100714.03
2022-08-29T05:21:35.220Z,100716.72
2022-08-29T05:24:05.690Z,100715.91
2022-08-29T05:26:39.038Z,100721.22
2022-08-29T05:29:09.016Z,100719.53
2022-08-29T05:31:37.967Z,100725.72
2022-08-29T05:34:16.299Z,100728.41
2022-08-29T05:36:55.245Z,100719.66
2022-08-29T05:39:23.663Z,100724.09
2022-08-29T05:41:55.844Z,100733.81
2022-08-29T05:44:24.325Z,100725.97
2022-08-29T05:46:52.813Z,100728.66
2022-08-29T05:49:21.578Z,100732.22
2022-08-29T05:51:53.282Z,100732.25
2022-08-29T05:54:21.693Z,100733.19
2022-08-29T05:56:50.225Z,100739.44
2022-08-29T05:59:21.202Z,100738.63
2022-08-29T06:01:49.679Z,100743.13
2022-08-29T06:04:19.015Z,100729.13
2022-08-29T06:06:47.474Z,100732.75
2022-08-29T06:09:15.839Z,100737.22
2022-08-29T06:11:48.001Z,100736.47
2022-08-29T06:14:17.811Z,100743.56
2022-08-29T06:16:47.595Z,100756.88
2022-08-29T06:19:16.183Z,100760.47
2022-08-29T06:21:44.807Z,100760.63
2022-08-29T06:24:13.145Z,100753.69
2022-08-29T06:26:41.547Z,100757.31
2022-08-29T06:29:10.376Z,100750.44
2022-08-29T06:31:39.270Z,100753.16
2022-08-29T06:34:09.830Z,100758.53
2022-08-29T06:36:38.918Z,100760.44
2022-08-29T06:39:09.836Z,100757.91
2022-08-29T06:41:40.179Z,100752.75
2022-08-29T06:44:09.216Z,100759.84
2022-08-29T06:46:40.387Z,100766.09
2022-08-29T06:49:13.766Z,100774.13
2022-08-29T06:51:44.243Z,100773.31
2022-08-29T06:54:13.789Z,100776.03
2022-08-29T06:56:42.654Z,100774.34
2022-08-29T06:59:11.373Z,100774.41
2022-08-29T07:01:41.456Z,100766.56
2022-08-29T07:04:14.392Z,100769.25
2022-08-29T07:06:44.578Z,100769.34
2022-08-29T07:09:14.462Z,100765.00
2022-08-29T07:11:43.708Z,100762.47
2022-08-29T07:14:13.483Z,100764.28
2022-08-29T07:16:42.597Z,100776.66
2022-08-29T07:19:12.546Z,100779.38
2022-08-29T07:21:41.294Z,100775.06
2022-08-29T07:24:09.930Z,100790.97
2022-08-29T07:26:42.049Z,100786.66
2022-08-29T07:29:13.037Z,100777.06
2022-08-29T07:31:41.811Z,100782.38
2022-08-29T07:34:10.290Z,100782.44
2022-08-29T07:36:40.690Z,100779.03
2022-08-29T07:39:12.045Z,100783.47
2022-08-29T07:41:41.949Z,100774.75
2022-08-29T07:44:11.557Z,100785.38
2022-08-29T07:46:39.981Z,100781.97
2022-08-29T07:49:09.057Z,100775.03
2022-08-29T07:51:37.566Z,100770.72
2022-08-29T07:54:16.491Z,100764.63
2022-08-29T07:56:44.876Z,100767.34
2022-08-29T07:59:13.513Z,100772.69
2022-08-29T08:01:41.927Z,100774.59
2022-08-29T08:04:11.095Z,100773.78
2022-08-29T08:06:42.055Z,100794.13
2022-08-29T08:09:14.020Z,100787.16
2022-08-29T08:11:43.337Z,100782.81
2022-08-29T08:14:14.706Z,100790.00
2022-08-29T08:16:44.416Z,100785.66
2022-08-29T08:19:14.152Z,100785.75
2022-08-29T08:21:49.585Z,100785.00
2022-08-29T08:24:20.355Z,100787.75
2022-08-29T08:26:49.488Z,100785.16
2022-08-29T08:29:18.320Z,100788.75
2022-08-29T08:31:48.826Z,100784.41
2022-08-29T08:34:17.632Z,100795.06
2022-08-29T08:36:46.858Z,100795.13
2022-08-29T08:39:15.936Z,100792.53
2022-08-29T08:41:55.599Z,100796.94
2022-08-29T08:44:48.688Z,100803.16
2022-08-29T08:47:23.977Z,100797.91
2022-08-29T08:49:59.189Z,100798.84
2022-08-29T08:52:38.623Z,100793.56
2022-08-29T08:55:15.728Z,100789.16
2022-08-29T08:57:53.472Z,100791.84
2022-08-29T09:00:22.093Z,100788.31
2022-08-29T09:03:03.577Z,100796.28
2022-08-29T09:05:59.099Z,100797.19
2022-08-29T09:08:42.671Z,100790.13
2022-08-29T09:11:19.803Z,100796.34
2022-08-29T09:14:01.022Z,100785.78
2022-08-29T09:16:37.660Z,100792.88
2022-08-29T09:19:09.366Z,100790.28
2022-08-29T09:21:49.368Z,100784.97
2022-08-29T09:24:25.576Z,100785.88
2022-08-29T09:26:53.979Z,100793.00
2022-08-29T09:29:22.467Z,100791.25
2022-08-29T09:32:10.189Z,100786.88
2022-08-29T09:35:04.810Z,100791.31
2022-08-29T09:37:33.682Z,100791.31
2022-08-29T09:40:09.198Z,100796.66
2022-08-29T09:42:40.787Z,100795.75
2022-08-29T09:45:17.850Z,100791.38
2022-08-29T09:47:46.606Z,100791.38
2022-08-29T09:50:22.071Z,100788.75
2022-08-29T09:52:57.697Z,100787.84
2022-08-29T09:55:30.978Z,100780.78
2022-08-29T09:58:03.223Z,100783.44
2022-08-29T10:00:35.392Z,100778.16
2022-08-29T10:03:06.529Z,100786.13
2022-08-29T10:05:45.260Z,100779.09
2022-08-29T10:08:31.180Z,100778.22
2022-08-29T10:11:02.732Z,100772.03
2022-08-29T10:13:41.862Z,100781.78
2022-08-29T10:16:18.557Z,100773.88
2022-08-29T10:18:51.902Z,100778.28
2022-08-29T10:21:32.775Z,100777.38
2022-08-29T10:24:15.878Z,100772.09
2022-08-29T10:26:56.119Z,100767.63
2022-08-29T10:29:37.374Z,100764.97
2022-08-29T10:32:25.574Z,100763.19
2022-08-29T10:35:04.565Z,100760.53
2022-08-29T10:37:43.997Z,100763.19
2022-08-29T10:40:20.300Z,100759.63
2022-08-29T10:42:53.488Z,100764.91
2022-08-29T10:45:30.644Z,100771.09
2022-08-29T10:48:06.870Z,100762.25
2022-08-29T10:50:44.420Z,100745.34
2022-08-29T10:53:17.827Z,100755.97
2022-08-29T10:55:54.370Z,100753.25
2022-08-29T10:58:36.304Z,100748.78
2022-08-29T11:01:12.409Z,100745.22
2022-08-29T11:03:48.268Z,100740.72
2022-08-29T11:06:22.360Z,100740.72
2022-08-29T11:08:57.594Z,100735.38
2022-08-29T11:11:29.093Z,100731.84
2022-08-29T11:14:04.897Z,100728.28
2022-08-29T11:16:39.613Z,100726.53
2022-08-29T11:19:14.085Z,100724.75
2022-08-29T11:21:45.138Z,100731.88
2022-08-29T11:24:16.290Z,100723.00
2022-08-29T11:26:57.412Z,100719.44
2022-08-29T11:29:36.996Z,100710.56
2022-08-29T11:32:10.724Z,100710.50
2022-08-29T11:34:55.245Z,100707.78
2022-08-29T11:37:47.921Z,100706.81
2022-08-29T11:43:25.232Z,100707.41
2022-08-29T11:45:59.436Z,100700.16
2022-08-29T11:48:34.870Z,100706.22
2022-08-29T11:51:28.562Z,100699.91
2022-08-29T11:53:57.869Z,100697.34
2022-08-29T11:56:30.419Z,100699.03
2022-08-29T11:59:00.384Z,100691.84
2022-08-29T12:01:58.369Z,100696.22
2022-08-29T12:04:52.596Z,100687.16
2022-08-29T12:07:23.146Z,100692.34
2022-08-29T12:09:54.750Z,100685.16
2022-08-29T12:12:43.880Z,100678.84
2022-08-29T12:15:54.196Z,100683.16
2022-08-29T12:18:36.660Z,100669.63
2022-08-29T12:21:44.251Z,100671.38
2022-08-29T12:24:43.106Z,100678.47
2022-08-29T12:27:45.992Z,100676.53
2022-08-29T12:30:15.226Z,100671.88
2022-08-29T12:32:58.295Z,100671.69
2022-08-29T12:36:02.058Z,100652.75
2022-08-29T12:38:42.411Z,100659.63
2022-08-29T12:41:34.723Z,100657.59
2022-08-29T12:44:09.403Z,100654.69
2022-08-29T12:46:41.421Z,100647.44
2022-08-29T12:49:21.949Z,100649.03
2022-08-29T12:51:56.363Z,100645.25
2022-08-29T12:54:34.120Z,100645.81
2022-08-29T12:57:04.470Z,100641.91
2022-08-29T12:59:34.550Z,100643.31
2022-08-29T13:02:03.006Z,100636.66
2022-08-29T13:04:33.700Z,100634.47
2022-08-29T13:07:06.052Z,100633.28
2022-08-29T13:09:38.818Z,100634.88
2022-08-29T13:12:12.269Z,100624.81
2022-08-29T13:14:56.120Z,100632.53
2022-08-29T13:17:27.260Z,100635.88
2022-08-29T13:20:32.766Z,100634.84
2022-08-29T13:23:22.956Z,100631.28
2022-08-29T13:25:55.080Z,100616.13
2022-08-29T13:28:30.199Z,100620.41
2022-08-29T13:31:32.368Z,100617.53
2022-08-29T13:34:11.737Z,100611.81
2022-08-29T13:36:45.352Z,100610.56
2022-08-29T13:39:29.272Z,100620.09
2022-08-29T13:42:30.218Z,100611.63
2022-08-29T13:45:15.365Z,100621.03
2022-08-29T13:47:52.891Z,100608.09
2022-08-29T13:50:21.418Z,100604.19
2022-08-29T13:52:52.351Z,100604.03
2022-08-29T13:55:22.895Z,100593.03
2022-08-29T13:57:53.561Z,100591.84
2022-08-29T14:00:32.377Z,100585.09
2022-08-29T14:03:07.429Z,100586.50
2022-08-29T14:05:37.583Z,100583.84
2022-08-29T14:08:06.354Z,100579.44
2022-08-29T14:10:36.502Z,100580.53
2022-08-29T14:13:06.082Z,100582.22
2022-08-29T14:15:35.310Z,100579.03
2022-08-29T14:18:05.174Z,100581.09
2022-08-29T14:20:33.921Z,100575.16
2022-08-29T14:23:02.341Z,100585.47
2022-08-29T14:25:30.828Z,100573.28
2022-08-29T14:28:00.649Z,100575.50
2022-08-29T14:30:29.132Z,100570.56
2022-08-29T14:32:57.522Z,100571.94
2022-08-29T14:35:31.481Z,100567.25
2022-08-29T14:38:01.793Z,100571.81
2022-08-29T14:40:33.916Z,100574.50
2022-08-29T14:43:04.419Z,100573.50
2022-08-29T14:45:33.105Z,100576.03
2022-08-29T14:48:02.026Z,100576.59
2022-08-29T14:50:30.742Z,100566.50
2022-08-29T14:52:59.129Z,100557.50
2022-08-29T14:55:27.661Z,100561.84
2022-08-29T14:57:56.176Z,100559.63
2022-08-29T15:00:28.790Z,100554.59
2022-08-29T15:02:57.763Z,100544.06
2022-08-29T15:05:26.245Z,100547.06
2022-08-29T15:07:54.605Z,100545.75
2022-08-29T15:10:25.667Z,100547.88
2022-08-29T15:12:54.529Z,100543.72
2022-08-29T15:15:28.982Z,100535.38
2022-08-29T15:18:00.858Z,100540.38
2022-08-29T15:20:36.301Z,100540.75
2022-08-29T15:23:05.929Z,100541.19
2022-08-29T15:25:34.793Z,100536.47
2022-08-29T15:28:03.627Z,100539.94
2022-08-29T15:30:32.115Z,100527.25
2022-08-29T15:33:01.857Z,100534.28
2022-08-29T15:35:30.238Z,100518.94
2022-08-29T15:37:58.567Z,100513.41
2022-08-29T15:40:27.542Z,100517.06
2022-08-29T15:42:55.949Z,100506.97
2022-08-29T15:45:24.339Z,100505.09
2022-08-29T15:47:53.944Z,100501.47
2022-08-29T15:50:24.863Z,100503.84
2022-08-29T15:52:53.250Z,100504.59
2022-08-29T15:55:21.856Z,100500.94
2022-08-29T15:57:52.448Z,100494.66
2022-08-29T16:00:30.715Z,100508.28
2022-08-29T16:03:02.527Z,100500.81
2022-08-29T16:05:33.053Z,100498.00
2022-08-29T16:08:02.010Z,100498.66
2022-08-29T16:10:31.593Z,100500.16
2022-08-29T16:13:00.703Z,100498.09
2022-08-29T16:15:31.044Z,100495.72
2022-08-29T16:18:00.524Z,100503.06
2022-08-29T16:20:29.666Z,100487.25
2022-08-29T16:23:00.378Z,100485.78
2022-08-29T16:25:29.666Z,100502.56
2022-08-29T16:27:58.442Z,100495.94
2022-08-29T16:30:26.923Z,100497.38
2022-08-29T16:32:56.139Z,100503.09
2022-08-29T16:35:25.204Z,100496.19
2022-08-29T16:38:02.570Z,100499.84
2022-08-29T16:40:33.217Z,100504.44
2022-08-29T16:43:02.778Z,100506.69
2022-08-29T16:45:31.970Z,100498.41
2022-08-29T16:48:00.670Z,100498.19
2022-08-29T16:50:29.861Z,100499.66
2022-08-29T16:52:58.302Z,100498.50
2022-08-29T16:55:28.657Z,100502.59
2022-08-29T16:58:30.647Z,100501.22
2022-08-29T17:00:59.254Z,100495.44
2022-08-29T17:03:27.935Z,100494.00
2022-08-29T17:05:56.553Z,100494.38
2022-08-29T17:08:23.907Z,100495.69
2022-08-29T17:10:51.236Z,100496.13
2022-08-29T17:13:19.952Z,100492.97
2022-08-29T17:15:47.212Z,100489.78
2022-08-29T17:18:16.612Z,100497.22
2022-08-29T17:20:46.364Z,100491.31
2022-08-29T17:23:15.706Z,100497.00
2022-08-29T17:25:44.555Z,100489.22
2022-08-29T17:28:18.201Z,100500.22
2022-08-29T17:30:48.879Z,100500.59
2022-08-29T17:33:17.780Z,100504.44
2022-08-29T17:35:46.847Z,100494.81
2022-08-29T17:38:16.006Z,100501.31
2022-08-29T17:40:44.783Z,100502.41
2022-08-29T17:43:13.964Z,100503.59
2022-08-29T17:45:42.438Z,100498.47
2022-08-29T17:48:12.342Z,100505.03
2022-08-29T17:50:41.934Z,100499.06
2022-08-29T17:53:10.361Z,100494.75
2022-08-29T17:55:39.020Z,100500.25
2022-08-29T17:58:07.904Z,100497.78
2022-08-29T18:00:37.159Z,100501.53
2022-08-29T18:03:06.326Z,100511.53
2022-08-29T18:05:36.205Z,100514.47
2022-08-29T18:08:05.634Z,100508.50
2022-08-29T18:10:34.459Z,100502.53
2022-08-29T18:13:02.762Z,100511.66
2022-08-29T18:15:35.336Z,100510.94
2022-08-29T18:18:04.574Z,100507.56
2022-08-29T18:20:33.021Z,100513.97
2022-08-29T18:23:02.739Z,100505.25
2022-08-29T18:25:31.173Z,100503.63
2022-08-29T18:28:00.038Z,100506.47
2022-08-29T18:30:29.031Z,100508.47
2022-08-29T18:32:57.439Z,100505.03
2022-08-29T18:35:25.906Z,100509.66
2022-08-29T18:37:54.340Z,100512.47
2022-08-29T18:40:24.428Z,100507.28
2022-08-29T18:42:53.583Z,100513.72
2022-08-29T18:45:22.055Z,100511.19
2022-08-29T18:47:50.433Z,100505.09
2022-08-29T18:50:37.457Z,100504.38
2022-08-29T18:53:10.652Z,100511.59
2022-08-29T18:55:44.937Z,100510.84
2022-08-29T18:58:18.187Z,100503.84
2022-08-29T19:00:46.883Z,100514.66
2022-08-29T19:03:15.648Z,100512.13
2022-08-29T19:05:47.711Z,100516.69
2022-08-29T19:08:16.715Z,100521.25
2022-08-29T19:10:47.444Z,100514.22
2022-08-29T19:13:16.512Z,100513.44
2022-08-29T19:15:48.518Z,100525.97
2022-08-29T19:18:18.697Z,100523.38
2022-08-29T19:21:06.291Z,100527.91
2022-08-29T19:23:37.342Z,100521.81
2022-08-29T19:26:10.925Z,100524.53
2022-08-29T19:31:08.744Z,100530.91
2022-08-29T19:33:37.800Z,100534.53
2022-08-29T19:36:09.149Z,100531.91
2022-08-29T19:38:37.627Z,100539.09
2022-08-29T19:41:07.795Z,100537.34
2022-08-29T19:46:11.240Z,100537.50
2022-08-29T19:48:43.196Z,100534.00
2022-08-29T19:51:13.482Z,100532.28
2022-08-29T19:53:42.802Z,100530.53
2022-08-29T19:56:14.330Z,100535.91
2022-08-29T19:58:43.019Z,100536.00
2022-08-29T20:01:11.510Z,100528.94
2022-08-29T20:03:41.212Z,100529.00
2022-08-29T20:06:10.244Z,100530.81
2022-08-29T20:08:39.730Z,100536.19
2022-08-29T20:11:13.487Z,100526.47
2022-08-29T20:13:47.582Z,100530.06
2022-08-29T20:16:21.812Z,100531.84
2022-08-29T20:18:51.802Z,100529.19
2022-08-29T20:21:21.122Z,100523.91
2022-08-29T20:23:57.821Z,100523.91
2022-08-29T20:26:35.654Z,100525.75
2022-08-29T20:29:07.410Z,100530.22
2022-08-29T20:31:36.129Z,100541.81
2022-08-29T20:34:05.555Z,100531.19
2022-08-29T20:36:51.606Z,100533.00
2022-08-29T20:39:21.392Z,100530.38
2022-08-29T20:41:57.290Z,100533.09
2022-08-29T20:44:32.975Z,100543.78
2022-08-29T20:47:02.645Z,100540.22
2022-08-29T20:49:31.295Z,100542.94
2022-08-29T20:52:00.717Z,100543.84
2022-08-29T20:54:30.263Z,100545.63
2022-08-29T20:57:01.472Z,100542.09
2022-08-29T20:59:34.438Z,100538.59
2022-08-29T21:02:03.985Z,100542.16
2022-08-29T21:04:49.981Z,100534.16
2022-08-29T21:07:18.870Z,100535.06
2022-08-29T21:09:50.198Z,100536.84
2022-08-29T21:12:21.347Z,100538.69
2022-08-29T21:14:49.738Z,100536.91
2022-08-29T21:17:19.136Z,100545.81
2022-08-29T21:19:47.496Z,100535.16
2022-08-29T21:22:16.406Z,100537.84
2022-08-29T21:24:44.823Z,100535.19
2022-08-29T21:27:13.295Z,100533.44
2022-08-29T21:29:43.567Z,100544.97
2022-08-29T21:32:11.917Z,100537.88
2022-08-29T21:34:40.293Z,100533.47
2022-08-29T21:37:08.720Z,100541.44
2022-08-29T21:39:37.565Z,100535.25
2022-08-29T21:42:06.728Z,100529.03
2022-08-29T21:44:36.216Z,100530.81
2022-08-29T21:47:07.006Z,100533.50
2022-08-29T21:49:35.476Z,100538.81
2022-08-29T21:52:04.210Z,100533.53
2022-08-29T21:54:32.560Z,100540.63
2022-08-29T21:57:03.636Z,100531.75
2022-08-29T21:59:32.572Z,100530.88
2022-08-29T22:02:00.963Z,100530.00
2022-08-29T22:04:32.766Z,100530.91
2022-08-29T22:07:01.096Z,100528.28
2022-08-29T22:09:30.512Z,100535.34
2022-08-29T22:11:59.987Z,100543.31
2022-08-29T22:14:42.845Z,100538.91
2022-08-29T22:17:11.186Z,100546.91
2022-08-29T22:19:41.816Z,100544.25
2022-08-29T22:22:10.633Z,100549.56
2022-08-29T22:24:39.065Z,100550.47
2022-08-29T22:27:08.451Z,100552.25
2022-08-29T22:29:37.460Z,100564.63
2022-08-29T22:32:06.190Z,100554.91
2022-08-29T22:34:34.817Z,100554.03
2022-08-29T22:37:04.542Z,100560.22
2022-08-29T22:39:33.001Z,100567.31
2022-08-29T22:42:01.389Z,100565.53
2022-08-29T22:45:03.374Z,100569.09
2022-08-29T22:47:19.847Z,100569.09
2022-08-29T22:49:48.212Z,100567.31
2022-08-29T22:52:17.929Z,100569.09
2022-08-29T22:54:46.618Z,100571.75
2022-08-29T22:57:18.320Z,100570.88
2022-08-29T22:59:49.061Z,100568.19
2022-08-29T23:02:18.441Z,100570.88
2022-08-29T23:04:48.972Z,100577.06
2022-08-29T23:07:20.266Z,100572.63
2022-08-29T23:09:48.687Z,100572.63
2022-08-29T23:12:17.188Z,100573.53
2022-08-29T23:14:47.175Z,100574.41
2022-08-29T23:17:16.955Z,100574.41
2022-08-29T23:19:45.635Z,100577.06
2022-08-29T23:22:15.430Z,100574.41
2022-08-29T23:24:58.374Z,100576.16
2022-08-29T23:27:28.585Z,100570.84
2022-08-29T23:29:57.059Z,100569.97
2022-08-29T23:32:25.830Z,100563.75
2022-08-29T23:34:55.002Z,100568.16
2022-08-29T23:37:23.508Z,100549.53
2022-08-29T23:39:53.461Z,100546.91
2022-08-29T23:42:21.834Z,100557.53
2022-08-29T23:44:50.293Z,100555.75
2022-08-29T23:47:19.115Z,100553.13
2022-08-29T23:49:47.678Z,100549.59
2022-08-29T23:52:16.066Z,100553.16
2022-08-29T23:54:44.453Z,100549.63
2022-08-29T23:57:14.136Z,100558.47
